MST,Max TemperatureF,Mean TemperatureF,Min TemperatureF,Max Dew PointF,MeanDew PointF,Min DewpointF,Max Humidity, Mean Humidity, Min Humidity, Max Sea Level PressureIn, Mean Sea Level PressureIn, Min Sea Level PressureIn, Max VisibilityMiles, Mean VisibilityMiles, Min VisibilityMiles, Max Wind SpeedMPH, Mean Wind SpeedMPH, Max Gust SpeedMPH,PrecipitationIn, CloudCover, Events, WindDirDegrees
2013-12-1,34,30,26,32,28,25,100,96,92,30.52,30.40,30.30,10,6,0,10,2,,0.00,8,Fog,212
2013-12-2,51,38,24,30,25,22,96,80,41,30.39,30.18,29.90,10,8,1,14,6,,0.00,4,,217
2013-12-3,54,42,30,25,21,17,69,44,25,29.86,29.67,29.50,10,10,10,32,14,44,0.00,0,,217
2013-12-4,44,35,25,31,26,18,93,73,49,29.86,29.68,29.44,10,6,0,36,22,51,0.03,6,Fog-Rain-Snow,254
2013-12-5,32,22,12,20,15,10,89,75,45,30.09,29.95,29.85,10,10,10,23,6,30,0.00,4,,269
2013-12-6,33,22,10,16,10,6,84,65,34,30.31,30.18,29.94,10,10,10,15,7,21,0.00,1,,214
2013-12-7,39,24,8,24,12,3,89,61,30,30.22,29.99,29.79,10,8,1,30,9,41,0.00,4,Snow,230
2013-12-8,30,24,19,26,20,13,92,82,56,30.15,29.90,29.75,10,4,0,34,18,48,0.06,8,Fog-Snow,256
2013-12-9,24,11,-2,17,5,-8,92,73,42,30.88,30.45,29.98,10,10,7,7,2,,0.00,2,Snow,1
2013-12-10,30,11,-8,10,-1,-13,87,68,31,30.96,30.76,30.56,10,10,10,7,3,,0.00,0,,68
2013-12-11,34,16,-2,11,4,-7,84,67,38,30.86,30.73,30.60,10,10,10,13,2,,0.00,0,,16
2013-12-12,44,26,7,24,14,3,87,65,37,30.78,30.51,30.13,10,10,10,8,2,,0.03,3,,355
2013-12-13,44,36,27,29,24,18,93,72,47,30.19,30.10,30.00,10,9,3,13,4,,0.03,4,Rain-Snow,252
2013-12-14,41,28,16,19,16,12,88,69,35,30.69,30.45,30.17,10,10,10,8,3,,0.00,0,,77
2013-12-15,48,32,16,23,17,11,89,69,33,30.70,30.55,30.40,10,10,10,6,2,,0.00,0,,77
2013-12-16,55,36,16,26,19,13,88,67,29,30.66,30.51,30.35,10,10,10,8,2,,0.00,0,,44
2013-12-17,53,34,16,24,19,11,92,70,27,30.67,30.51,30.37,10,10,10,6,1,,0.00,0,,34
2013-12-18,57,38,19,26,20,16,89,61,23,30.42,30.18,29.88,,,,9,2,,0.00,0,,167
2013-12-19,51,38,25,24,20,18,79,53,27,29.81,29.74,29.65,,,,23,7,34,0.00,0,,203
2013-12-20,45,36,26,30,25,21,85,67,40,29.81,29.70,29.62,,,,9,4,,0.00,6,Snow,40
2013-12-21,35,32,28,30,26,21,92,78,59,29.96,29.72,29.60,,,,17,7,22,0.00,7,Snow,271
2013-12-22,39,29,18,21,17,13,85,66,37,30.46,30.23,29.98,,,,12,6,16,0.00,0,,268
2013-12-23,44,28,12,19,15,9,88,67,32,30.68,30.57,30.44,10,10,10,6,1,,0.00,0,,102
2013-12-24,52,33,14,23,17,11,92,69,31,30.57,30.44,30.23,10,10,10,13,2,,0.00,0,,236
2013-12-25,44,26,9,17,9,6,92,59,21,30.67,30.54,30.38,10,10,10,12,2,,0.00,0,,321
2013-12-26,46,26,7,13,8,3,84,57,21,30.71,30.54,30.39,10,10,10,10,1,,0.00,0,,39
2013-12-27,51,30,10,14,10,5,87,57,19,30.70,30.48,30.32,10,10,9,8,1,,0.00,0,,18
2013-12-28,50,30,10,18,13,5,88,58,24,30.42,30.19,29.97,10,10,10,14,3,,0.00,1,,250
2013-12-29,45,28,12,19,16,8,85,63,31,30.42,30.18,29.96,10,10,10,12,2,,0.00,1,,61
2013-12-30,50,30,10,17,10,6,84,59,20,30.61,30.46,30.33,10,10,10,10,2,,0.00,0,,52
2013-12-31,53,32,10,19,13,5,84,56,24,30.61,30.38,30.22,10,10,10,10,2,,0.00,0,,203